Time;durP1;ratioP1;P1;durP2;ratioP2;P2;SDS_P1;SDS_P2;PMS_P1;PMS_P2;Temp;Humidity;BMP_temperature;BMP_pressure;BME280_temperature;BME280_humidity;BME280_pressure;Samples;Min_cycle;Max_cycle;Signal;HPM_P1;HPM_P2
2022/04/25 00:00:05;;;;;;;3.40;3.10;;;20.70;47.70;21.70;99898.00;;;;4986272;28;20183;-54
2022/04/25 00:02:31;;;;;;;3.43;3.13;;;20.70;47.80;21.70;99895.00;;;;4984805;28;20269;-54
2022/04/25 00:04:56;;;;;;;4.33;3.03;;;20.60;47.80;21.60;99895.00;;;;4985680;28;20208;-56
2022/04/25 00:07:22;;;;;;;3.27;2.97;;;20.60;47.80;21.60;99903.00;;;;4986143;28;20855;-55
2022/04/25 00:09:49;;;;;;;3.20;2.90;;;20.60;47.80;21.60;99909.00;;;;4986432;28;20268;-54
2022/04/25 00:12:14;;;;;;;3.30;3.00;;;20.60;47.80;21.60;99903.00;;;;4991098;28;20350;-56
2022/04/25 00:14:40;;;;;;;3.30;3.00;;;20.60;47.80;21.60;99910.00;;;;5006023;28;20267;-56
2022/04/25 00:17:06;;;;;;;3.20;3.00;;;20.60;47.90;21.60;99918.00;;;;5005720;28;20182;-57
2022/04/25 00:19:31;;;;;;;3.10;2.70;;;20.60;47.90;21.60;99913.00;;;;5005846;28;20177;-54
2022/04/25 00:21:57;;;;;;;4.23;3.10;;;20.60;47.90;21.60;99912.00;;;;5005914;28;20262;-55
2022/04/25 00:24:23;;;;;;;3.27;2.90;;;20.60;47.90;21.60;99930.00;;;;5010001;28;20792;-56
2022/04/25 00:26:49;;;;;;;2.93;2.73;;;20.50;47.90;21.50;99955.00;;;;5009345;28;20173;-55
2022/04/25 00:29:14;;;;;;;2.97;2.77;;;20.50;47.90;21.50;99976.00;;;;5006458;28;20180;-55
2022/04/25 00:31:40;;;;;;;3.43;2.80;;;20.50;47.90;21.50;99992.00;;;;5005435;28;20455;-57
2022/04/25 00:34:06;;;;;;;3.30;3.00;;;20.50;47.90;21.50;100009.00;;;;5005707;28;20742;-57
2022/04/25 00:36:32;;;;;;;2.83;2.63;;;20.50;47.90;21.50;100004.00;;;;5005616;28;20548;-55
2022/04/25 00:38:58;;;;;;;3.77;2.87;;;20.50;47.90;21.50;100010.00;;;;5023101;28;20669;-56
2022/04/25 00:41:23;;;;;;;2.90;2.70;;;20.50;47.80;21.50;100015.00;;;;5008277;28;20211;-56
2022/04/25 00:43:54;;;;;;;2.90;2.70;;;20.40;47.90;21.40;100010.00;;;;5005185;28;20196;-55
2022/04/25 00:46:21;;;;;;;3.07;2.87;;;20.40;47.80;21.40;100020.00;;;;5004388;28;20176;-55
2022/04/25 00:48:47;;;;;;;2.90;2.70;;;20.40;47.80;21.40;100013.00;;;;5005914;28;20195;-55
2022/04/25 00:51:12;;;;;;;3.10;2.80;;;20.40;47.80;21.40;100020.00;;;;5005378;28;20810;-56
2022/04/25 00:53:38;;;;;;;3.27;2.97;;;20.40;47.80;21.40;100024.00;;;;5005423;28;20208;-55
2022/04/25 00:56:05;;;;;;;2.90;2.60;;;20.40;47.80;21.40;100033.00;;;;5008941;28;20176;-57
2022/04/25 00:58:31;;;;;;;2.80;2.60;;;20.40;47.80;21.30;100028.00;;;;4991661;28;20184;-56
2022/04/25 01:00:56;;;;;;;3.03;2.73;;;20.40;47.70;21.30;100036.00;;;;5004121;28;20804;-55
2022/04/25 01:03:22;;;;;;;3.03;2.83;;;20.30;47.80;21.30;100030.00;;;;5005312;28;20196;-56
2022/04/25 01:05:48;;;;;;;2.60;2.40;;;20.40;47.90;21.30;99972.00;;;;5005376;28;20183;-56
2022/04/25 01:08:13;;;;;;;3.00;2.70;;;20.30;47.70;21.30;100019.00;;;;5005393;28;20196;-57
2022/04/25 01:10:39;;;;;;;2.93;2.67;;;20.30;47.70;21.30;100028.00;;;;5006318;28;20169;-54
2022/04/25 01:13:05;;;;;;;2.80;2.60;;;20.30;47.80;21.30;100022.00;;;;5007977;28;20537;-56
2022/04/25 01:15:31;;;;;;;2.93;2.73;;;20.30;47.80;21.20;100020.00;;;;5009074;28;20241;-55
2022/04/25 01:17:57;;;;;;;3.23;2.80;;;20.30;47.90;21.20;100007.00;;;;5009162;28;20173;-56
2022/04/25 01:20:22;;;;;;;2.70;2.50;;;20.30;47.90;21.20;100010.00;;;;5009329;28;20180;-56
2022/04/25 01:28:48;;;;;;;2.90;2.60;;;20.20;47.90;21.10;99988.00;;;;5009038;28;20265;-55
2022/04/25 01:31:13;;;;;;;3.03;2.60;;;20.20;47.80;21.10;99987.00;;;;5007654;28;20263;-57
2022/04/25 01:33:39;;;;;;;2.70;2.50;;;20.20;47.90;21.10;99990.00;;;;5008314;28;20211;-57
2022/04/25 01:36:05;;;;;;;2.70;2.50;;;20.20;47.90;21.10;99980.00;;;;5008542;28;20917;-57
2022/04/25 01:38:30;;;;;;;2.60;2.40;;;20.20;47.90;21.10;99977.00;;;;5008580;28;20222;-57
2022/04/25 01:40:57;;;;;;;2.73;2.53;;;20.10;47.80;21.10;99973.00;;;;5008453;28;20174;-55
2022/04/25 01:43:22;;;;;;;2.57;2.37;;;20.10;47.80;21.10;99980.00;;;;5008651;28;20219;-56
2022/04/25 01:45:48;;;;;;;2.63;2.43;;;20.10;47.80;21.10;99971.00;;;;5008226;28;20720;-56
2022/04/25 01:48:14;;;;;;;2.80;2.60;;;20.10;47.90;21.00;99963.00;;;;5008604;28;20180;-55
2022/04/25 01:50:39;;;;;;;2.90;2.70;;;20.10;47.90;21.00;99961.00;;;;5008431;28;20550;-54
2022/04/25 01:53:05;;;;;;;2.93;2.60;;;20.10;47.90;20.90;99952.00;;;;5008100;28;20200;-55
2022/04/25 01:55:31;;;;;;;2.70;2.50;;;20.00;47.90;21.00;99946.00;;;;5008544;28;20199;-54
2022/04/25 01:57:57;;;;;;;3.63;2.60;;;20.00;48.00;21.00;99933.00;;;;5008013;28;20254;-56
2022/04/25 02:00:22;;;;;;;2.50;2.30;;;20.00;47.90;21.00;99913.00;;;;5008244;28;20181;-55
2022/04/25 02:02:48;;;;;;;2.50;2.30;;;20.00;48.00;21.00;99905.00;;;;5008185;28;20223;-56
2022/04/25 02:05:14;;;;;;;2.53;2.37;;;20.00;48.00;20.90;99918.00;;;;5008842;28;20168;-56
2022/04/25 02:07:39;;;;;;;2.43;2.23;;;20.00;48.00;20.90;99921.00;;;;5007890;28;20176;-56
2022/04/25 02:10:06;;;;;;;2.50;2.30;;;20.00;48.00;20.90;99933.00;;;;5008178;28;20167;-57
2022/04/25 02:12:31;;;;;;;2.40;2.10;;;20.00;48.00;20.90;99924.00;;;;5007748;28;20199;-56
2022/04/25 02:14:57;;;;;;;2.30;2.20;;;19.90;47.90;20.90;99902.00;;;;5008298;28;20171;-55
2022/04/25 02:17:23;;;;;;;2.60;2.40;;;19.90;47.90;20.90;99917.00;;;;5007969;28;20200;-55
2022/04/25 02:19:49;;;;;;;2.40;2.20;;;19.90;47.90;20.90;99917.00;;;;5006737;28;20184;-56
2022/04/25 02:22:16;;;;;;;2.20;2.10;;;19.90;47.90;20.80;99914.00;;;;5006385;28;20217;-54
2022/04/25 02:24:42;;;;;;;2.40;2.20;;;19.90;48.00;20.80;99910.00;;;;5007776;28;20177;-56
2022/04/25 02:27:08;;;;;;;2.60;2.40;;;19.90;47.90;20.80;99907.00;;;;5022850;28;20603;-56
2022/04/25 02:29:35;;;;;;;2.23;2.10;;;19.90;47.90;20.80;99900.00;;;;5008166;28;20203;-55
2022/04/25 02:32:02;;;;;;;2.40;2.20;;;19.80;47.90;20.80;99895.00;;;;5007458;28;20235;-53
2022/04/25 02:34:31;;;;;;;2.60;2.40;;;19.80;47.90;20.80;99907.00;;;;5007576;28;20179;-54
2022/04/25 02:36:57;;;;;;;2.30;2.10;;;19.80;47.90;20.80;99900.00;;;;5007016;28;20703;-56
2022/04/25 02:39:23;;;;;;;2.10;2.00;;;19.80;48.00;20.70;99911.00;;;;5007455;28;20175;-56
2022/04/25 02:41:49;;;;;;;2.23;2.13;;;19.80;48.10;20.70;99910.00;;;;5007247;28;20640;-55
2022/04/25 02:44:16;;;;;;;2.50;2.30;;;19.80;48.20;20.70;99902.00;;;;5007616;28;20199;-54
2022/04/25 02:46:42;;;;;;;2.50;2.10;;;19.80;48.20;20.70;99919.00;;;;5007287;28;20211;-54
2022/04/25 02:49:08;;;;;;;2.40;2.20;;;19.80;48.30;20.70;99917.00;;;;5007118;28;20179;-55
2022/04/25 02:51:33;;;;;;;2.20;2.10;;;19.80;48.30;20.70;99906.00;;;;5007204;28;20245;-55
2022/04/25 02:53:59;;;;;;;2.23;2.03;;;19.80;48.30;20.70;99929.00;;;;5007472;28;20207;-54
2022/04/25 02:56:25;;;;;;;2.33;2.10;;;19.70;48.30;20.70;99927.00;;;;5007187;28;20172;-55
2022/04/25 02:58:50;;;;;;;2.27;2.07;;;19.70;48.30;20.70;99939.00;;;;5007493;28;20179;-57
2022/04/25 03:01:16;;;;;;;2.80;2.20;;;19.70;48.30;20.60;99928.00;;;;5007027;28;20210;-54
2022/04/25 03:03:42;;;;;;;2.17;2.07;;;19.70;48.40;20.60;99917.00;;;;5007266;28;20214;-54
2022/04/25 03:06:09;;;;;;;2.37;2.17;;;19.70;48.30;20.60;99909.00;;;;5006857;28;20559;-55
2022/04/25 03:08:35;;;;;;;2.30;2.10;;;19.70;48.40;20.60;99916.00;;;;5007307;28;20245;-56
2022/04/25 03:11:03;;;;;;;2.30;2.13;;;19.60;48.30;20.60;99920.00;;;;5007390;28;20183;-55
2022/04/25 03:13:29;;;;;;;2.40;2.20;;;19.60;48.30;20.60;99906.00;;;;5006517;28;20230;-55
2022/04/25 03:15:55;;;;;;;2.67;2.10;;;19.70;48.40;20.60;99918.00;;;;5006960;28;20168;-56
2022/04/25 03:18:23;;;;;;;2.20;2.10;;;19.60;48.30;20.60;99920.00;;;;5006802;28;20179;-55
2022/04/25 03:20:50;;;;;;;2.00;1.90;;;19.60;48.40;20.60;99923.00;;;;5006578;28;20183;-55
2022/04/25 03:23:20;;;;;;;2.37;2.10;;;19.60;48.50;20.50;99908.00;;;;5006093;28;20832;-55
2022/04/25 03:25:46;;;;;;;1.97;1.87;;;19.60;48.50;20.50;99925.00;;;;5006660;28;20578;-55
2022/04/25 03:28:12;;;;;;;2.20;2.10;;;19.60;48.40;20.50;99926.00;;;;5006674;28;20187;-56
2022/04/25 03:30:37;;;;;;;2.40;2.20;;;19.60;48.60;20.50;99929.00;;;;4989733;28;20233;-55
2022/04/25 03:33:03;;;;;;;5.73;2.13;;;19.60;48.80;20.50;99927.00;;;;5006499;28;20246;-56
2022/04/25 03:35:29;;;;;;;5.93;2.00;;;19.60;48.60;20.50;99929.00;;;;5005633;28;20168;-55
2022/04/25 03:37:55;;;;;;;2.70;2.17;;;19.60;48.50;20.50;99936.00;;;;5006671;28;20641;-56
2022/04/25 03:40:21;;;;;;;4.63;2.03;;;19.50;48.30;20.50;99926.00;;;;5007292;28;20180;-55
2022/04/25 03:42:47;;;;;;;3.37;2.10;;;19.60;48.40;20.50;99945.00;;;;5006565;28;20212;-55
2022/04/25 03:45:17;;;;;;;4.43;2.30;;;19.50;48.40;20.40;99946.00;;;;5006594;28;20292;-55
2022/04/25 03:47:44;;;;;;;2.53;2.00;;;19.50;48.40;20.40;99951.00;;;;5006193;28;20167;-54
2022/04/25 03:50:10;;;;;;;4.03;2.23;;;19.50;48.40;20.40;99955.00;;;;5006162;28;20479;-55
2022/04/25 03:52:40;;;;;;;2.60;1.90;;;19.40;48.20;20.40;99968.00;;;;5005876;28;20195;-55
2022/04/25 03:57:57;;;;;;;2.00;1.90;;;19.40;48.20;20.30;99969.00;;;;5006333;28;20210;-55
2022/04/25 04:00:23;;;;;;;3.07;2.23;;;19.40;48.20;20.30;99977.00;;;;5004575;28;20172;-53
2022/04/25 04:02:49;;;;;;;2.40;2.20;;;19.40;48.10;20.30;99992.00;;;;5004648;28;20218;-54
2022/04/25 04:05:14;;;;;;;2.00;1.80;;;19.40;48.10;20.20;99992.00;;;;5005881;28;20647;-54
2022/04/25 04:07:40;;;;;;;3.87;2.40;;;19.40;48.00;20.20;99989.00;;;;4995710;28;20377;-55
2022/04/25 04:10:07;;;;;;;7.67;2.03;;;19.40;48.10;20.20;99996.00;;;;4991076;28;20314;-54
2022/04/25 04:12:34;;;;;;;4.63;2.20;;;19.30;48.00;20.20;99997.00;;;;4984310;28;20207;-54
2022/04/25 04:15:02;;;;;;;4.17;2.10;;;19.30;48.00;20.20;99991.00;;;;4985796;28;20188;-55
2022/04/25 04:17:28;;;;;;;2.63;2.00;;;19.30;47.90;20.20;99998.00;;;;4986103;28;20168;-55
2022/04/25 04:19:54;;;;;;;3.83;2.10;;;19.30;48.00;20.20;99995.00;;;;4985938;28;20172;-53
2022/04/25 04:22:22;;;;;;;4.20;1.87;;;19.30;48.00;20.20;99998.00;;;;4985629;28;20216;-56
2022/04/25 04:24:49;;;;;;;2.63;2.20;;;19.30;47.90;20.20;100001.00;;;;4991396;28;20266;-56
2022/04/25 04:27:14;;;;;;;4.43;2.20;;;19.20;47.80;20.20;99988.00;;;;5005120;28;20168;-56
2022/04/25 04:29:40;;;;;;;5.23;2.10;;;19.20;47.80;20.20;100007.00;;;;5003976;28;20258;-56
2022/04/25 04:32:07;;;;;;;2.47;2.10;;;19.20;47.80;20.20;100001.00;;;;5004303;28;20230;-55
2022/04/25 04:34:36;;;;;;;6.57;2.20;;;19.20;48.00;20.20;99999.00;;;;5005508;28;20160;-57
2022/04/25 04:37:03;;;;;;;4.00;1.97;;;19.20;47.90;20.20;100005.00;;;;5005402;28;20172;-54
2022/04/25 04:39:29;;;;;;;3.47;2.10;;;19.20;48.00;20.10;100008.00;;;;5005657;28;20183;-55
2022/04/25 04:41:55;;;;;;;4.70;2.10;;;19.20;48.00;20.10;100008.00;;;;5004110;28;20199;-55
2022/04/25 04:44:20;;;;;;;8.00;2.00;;;19.20;48.10;20.10;100007.00;;;;5005261;28;20168;-55
2022/04/25 04:46:47;;;;;;;5.20;2.00;;;19.10;48.00;20.10;100016.00;;;;5008097;28;20784;-54
2022/04/25 04:49:13;;;;;;;2.50;1.90;;;19.10;48.00;20.10;100021.00;;;;5009728;28;20160;-56
2022/04/25 04:51:38;;;;;;;2.13;1.83;;;19.20;48.10;20.10;100010.00;;;;5009495;28;20179;-54
2022/04/25 04:54:04;;;;;;;4.43;1.90;;;19.10;48.00;20.10;100020.00;;;;5008049;28;20203;-54
2022/04/25 04:56:30;;;;;;;2.20;2.00;;;19.10;48.00;20.10;100014.00;;;;5009175;28;20202;-55
2022/04/25 04:58:56;;;;;;;2.30;1.97;;;19.10;48.10;20.10;100018.00;;;;5008303;28;20164;-55
2022/04/25 05:01:21;;;;;;;2.27;1.80;;;19.10;48.10;20.10;100028.00;;;;5011622;28;20203;-55
2022/04/25 05:03:47;;;;;;;2.27;1.97;;;19.10;48.20;20.00;100019.00;;;;5010682;28;20663;-55
2022/04/25 05:06:13;;;;;;;2.27;1.90;;;19.00;48.10;20.00;100029.00;;;;5008156;28;20183;-56
2022/04/25 05:08:39;;;;;;;2.30;1.90;;;19.00;48.10;20.00;100026.00;;;;5009442;28;20726;-57
2022/04/25 05:11:07;;;;;;;2.60;2.10;;;19.10;48.20;20.00;100017.00;;;;5009686;28;20639;-54
2022/04/25 05:13:33;;;;;;;2.20;2.00;;;19.10;48.20;20.00;100026.00;;;;5009035;28;20223;-55
2022/04/25 05:15:58;;;;;;;2.30;2.10;;;19.00;48.10;20.00;100023.00;;;;5024117;28;20179;-54
2022/04/25 05:18:24;;;;;;;2.20;1.77;;;19.00;48.10;20.00;100025.00;;;;5008842;28;20183;-55
2022/04/25 05:20:51;;;;;;;1.97;1.80;;;19.00;48.20;19.90;100030.00;;;;5008814;28;20172;-54
2022/04/25 05:23:16;;;;;;;2.23;1.70;;;19.00;48.10;19.90;100023.00;;;;5007826;28;20194;-54
2022/04/25 05:25:42;;;;;;;2.43;1.90;;;19.00;48.10;19.90;100029.00;;;;5009973;28;20258;-57
2022/04/25 05:28:08;;;;;;;2.17;2.00;;;19.00;48.10;19.90;100025.00;;;;5009038;28;20714;-55
2022/04/25 05:30:33;;;;;;;1.90;1.80;;;19.00;48.20;19.90;100021.00;;;;5008971;28;20179;-54
2022/04/25 05:33:02;;;;;;;2.30;2.10;;;19.00;48.20;19.90;100029.00;;;;5009021;28;20195;-53
2022/04/25 05:35:32;;;;;;;2.30;1.80;;;18.90;48.20;19.90;100020.00;;;;5008839;28;20183;-55
2022/04/25 05:37:57;;;;;;;2.20;2.00;;;18.90;48.20;19.80;100024.00;;;;5010046;28;20164;-55
2022/04/25 05:40:24;;;;;;;1.90;1.80;;;18.90;48.10;19.80;100029.00;;;;5009766;28;20171;-56
2022/04/25 05:42:50;;;;;;;2.20;2.00;;;18.90;48.20;19.80;100029.00;;;;5007373;28;20235;-54
2022/04/25 05:45:18;;;;;;;1.90;1.80;;;18.90;48.90;19.80;100039.00;;;;5008729;28;20203;-55
2022/04/25 05:47:44;;;;;;;1.70;1.60;;;18.90;48.20;19.80;100039.00;;;;4992134;28;20163;-55
2022/04/25 05:52:55;;;;;;;4.87;2.00;;;18.90;48.20;19.80;100044.00;;;;5008161;28;20269;-56
2022/04/25 05:55:21;;;;;;;1.70;1.60;;;18.80;48.10;19.80;100031.00;;;;5008523;28;20183;-55
2022/04/25 05:57:47;;;;;;;1.90;1.80;;;18.80;48.20;19.80;100045.00;;;;5007429;28;20234;-56
2022/04/25 06:00:14;;;;;;;1.80;1.70;;;18.80;48.20;19.80;100053.00;;;;5008791;28;20168;-56
2022/04/25 06:02:41;;;;;;;1.80;1.70;;;18.80;48.20;19.80;100051.00;;;;5008199;28;20214;-56
2022/04/25 06:05:07;;;;;;;2.10;1.80;;;18.80;48.20;19.70;100059.00;;;;5008389;28;20271;-57
2022/04/25 06:07:33;;;;;;;2.00;1.90;;;18.80;48.30;19.70;100076.00;;;;5007524;28;20164;-56
2022/04/25 06:10:00;;;;;;;1.97;1.80;;;18.80;48.20;19.70;100068.00;;;;5008450;28;20738;-56
2022/04/25 06:12:27;;;;;;;2.73;1.70;;;18.70;48.20;19.70;100068.00;;;;5008184;28;20313;-55
2022/04/25 06:14:53;;;;;;;2.07;1.87;;;18.80;48.30;19.70;100085.00;;;;5008603;28;20175;-56
2022/04/25 06:17:19;;;;;;;2.10;1.97;;;18.80;48.20;19.70;100085.00;;;;5007710;28;20180;-55
2022/04/25 06:19:45;;;;;;;1.80;1.70;;;18.70;48.30;19.70;100086.00;;;;5008363;28;20202;-57
2022/04/25 06:22:11;;;;;;;1.93;1.77;;;18.80;48.40;19.70;100083.00;;;;5008139;28;20210;-56
2022/04/25 06:24:38;;;;;;;1.80;1.70;;;18.70;48.20;19.70;100093.00;;;;5008331;28;20171;-56
2022/04/25 06:27:05;;;;;;;1.70;1.60;;;18.70;48.40;19.70;100101.00;;;;5008225;28;20608;-56
2022/04/25 06:29:31;;;;;;;1.80;1.70;;;18.70;48.30;19.70;100096.00;;;;5008535;28;20182;-56
2022/04/25 06:31:58;;;;;;;2.20;1.77;;;18.70;48.40;19.70;100101.00;;;;5007472;28;20587;-56
2022/04/25 06:34:24;;;;;;;1.80;1.70;;;18.70;48.50;19.70;100106.00;;;;5007907;28;20174;-57
2022/04/25 06:36:50;;;;;;;1.80;1.70;;;18.70;48.50;19.60;100105.00;;;;5007105;28;20187;-55
2022/04/25 06:39:16;;;;;;;1.73;1.63;;;18.70;48.50;19.60;100106.00;;;;5007848;28;20181;-55
2022/04/25 06:41:42;;;;;;;1.90;1.80;;;18.70;48.50;19.60;100108.00;;;;5007749;28;20199;-55
2022/04/25 06:44:08;;;;;;;4.93;2.00;;;18.70;48.50;19.60;100112.00;;;;5007584;28;20655;-54
2022/04/25 06:46:34;;;;;;;1.97;1.77;;;18.70;49.00;19.60;100111.00;;;;5007716;28;20480;-56
2022/04/25 06:51:44;;;;;;;2.20;1.63;;;18.70;48.60;19.70;100112.00;;;;5007066;28;20259;-55
2022/04/25 06:54:09;;;;;;;4.23;1.80;;;18.70;48.60;19.60;100112.00;;;;5007561;28;20639;-54
2022/04/25 06:56:35;;;;;;;5.50;2.00;;;18.70;48.60;19.60;100107.00;;;;5021846;28;20183;-54
2022/04/25 06:59:01;;;;;;;4.63;2.00;;;18.70;48.70;19.60;100112.00;;;;5007580;28;20194;-53
2022/04/25 07:01:27;;;;;;;3.17;1.80;;;18.70;49.00;19.60;100104.00;;;;5006431;28;20282;-54
2022/04/25 07:03:53;;;;;;;5.93;1.90;;;18.70;48.90;19.60;100111.00;;;;4927209;28;20261;-54
2022/04/25 07:06:18;;;;;;;3.67;1.90;;;18.70;49.00;19.60;100099.00;;;;5008120;28;20183;-55
2022/04/25 07:08:44;;;;;;;2.10;1.90;;;18.70;48.90;19.60;100102.00;;;;5007541;28;20509;-55
2022/04/25 07:11:10;;;;;;;4.10;1.83;;;18.60;49.00;19.60;100106.00;;;;5005608;28;20168;-55
2022/04/25 07:13:36;;;;;;;2.80;1.83;;;18.60;49.00;19.60;100110.00;;;;5010923;28;20195;-55
2022/04/25 07:16:02;;;;;;;3.77;2.00;;;18.60;49.00;19.60;100119.00;;;;5020135;28;20182;-54
2022/04/25 07:18:29;;;;;;;3.57;1.90;;;18.60;49.00;19.60;100115.00;;;;5016198;28;20202;-56
2022/04/25 07:20:55;;;;;;;1.90;1.80;;;18.60;49.10;19.60;100126.00;;;;5007544;28;20168;-54
2022/04/25 07:28:49;;;;;;;2.17;1.90;;;18.60;49.00;19.50;100126.00;;;;5007025;28;20169;-56
2022/04/25 07:31:18;;;;;;;2.20;1.83;;;18.60;49.00;19.50;100126.00;;;;5007350;28;20179;-59
2022/04/25 07:33:45;;;;;;;2.83;1.80;;;18.60;49.10;19.50;100134.00;;;;4989075;28;20195;-54
2022/04/25 07:36:12;;;;;;;1.90;1.63;;;18.60;49.10;19.50;100135.00;;;;5007403;28;20260;-56
2022/04/25 07:38:39;;;;;;;1.80;1.70;;;18.50;49.00;19.50;100137.00;;;;5007576;28;20632;-53
2022/04/25 07:41:06;;;;;;;2.73;2.00;;;18.50;49.00;19.50;100138.00;;;;5010374;28;20504;-55
2022/04/25 07:43:32;;;;;;;1.80;1.70;;;18.50;49.00;19.50;100140.00;;;;4989425;28;20198;-55
2022/04/25 07:45:57;;;;;;;2.20;2.00;;;18.50;49.00;19.50;100147.00;;;;5005615;28;20177;-54
2022/04/25 07:48:25;;;;;;;2.63;2.00;;;18.50;49.00;19.50;100142.00;;;;5006604;28;20182;-54
2022/04/25 07:50:50;;;;;;;2.23;2.03;;;18.50;49.00;19.50;100139.00;;;;5006946;28;20674;-54
2022/04/25 07:53:16;;;;;;;1.97;1.87;;;18.50;49.00;19.50;100139.00;;;;5006833;28;20206;-56
2022/04/25 07:55:42;;;;;;;1.80;1.70;;;18.50;49.00;19.50;100137.00;;;;5007202;28;20190;-56
2022/04/25 07:58:08;;;;;;;2.03;1.90;;;18.50;49.00;19.40;100146.00;;;;5006310;28;20294;-54
2022/04/25 08:00:35;;;;;;;3.23;1.93;;;18.50;49.00;19.40;100144.00;;;;5006518;28;20198;-50
2022/04/25 08:03:01;;;;;;;3.40;1.80;;;18.50;49.20;19.40;100136.00;;;;5003334;28;21153;-50
2022/04/25 08:05:27;;;;;;;1.90;1.80;;;18.50;49.20;19.40;100147.00;;;;4947414;28;20366;-51
2022/04/25 08:07:53;;;;;;;2.10;1.90;;;18.50;49.20;19.50;100151.00;;;;5008622;28;20171;-50
2022/04/25 08:10:19;;;;;;;3.90;1.97;;;18.50;49.40;19.40;100150.00;;;;5008408;28;20229;-51
2022/04/25 08:18:13;;;;;;;2.30;2.10;;;18.50;49.60;19.50;100152.00;;;;5007812;28;20220;-48
2022/04/25 08:20:39;;;;;;;2.00;1.90;;;18.60;49.60;19.50;100161.00;;;;5007745;28;20613;-49
2022/04/25 08:23:11;;;;;;;2.97;2.10;;;18.50;49.60;19.50;100159.00;;;;5007244;28;20226;-51
2022/04/25 08:25:38;;;;;;;2.07;1.97;;;18.50;49.70;19.50;100175.00;;;;5008853;28;20160;-51
2022/04/25 08:28:05;;;;;;;2.20;2.00;;;18.60;49.80;19.50;100162.00;;;;5008512;28;20167;-49
2022/04/25 08:30:31;;;;;;;11.57;2.70;;;18.60;49.80;19.50;100172.00;;;;5008633;28;20195;-50
2022/04/25 08:32:57;;;;;;;9.77;2.40;;;18.50;49.70;19.50;100170.00;;;;5007666;28;20277;-50
2022/04/25 08:35:23;;;;;;;6.07;2.27;;;18.60;49.80;19.50;100175.00;;;;5008637;28;20640;-50
2022/04/25 08:37:49;;;;;;;7.67;2.30;;;18.50;49.60;19.50;100181.00;;;;5008191;28;20190;-49
2022/04/25 08:40:15;;;;;;;6.43;2.67;;;18.60;49.90;19.40;100183.00;;;;5011140;28;20183;-51
2022/04/25 08:42:41;;;;;;;8.10;2.40;;;18.50;49.90;19.50;100186.00;;;;5008472;28;20211;-50
2022/04/25 08:45:08;;;;;;;6.37;2.40;;;18.50;49.90;19.50;100189.00;;;;5007900;28;20171;-50
2022/04/25 08:47:37;;;;;;;3.90;2.63;;;18.50;49.80;19.50;100176.00;;;;5005895;28;20818;-50
2022/04/25 08:50:04;;;;;;;5.53;2.53;;;18.50;49.90;19.50;100187.00;;;;5007277;28;20647;-50
2022/04/25 08:52:30;;;;;;;8.13;2.73;;;18.60;50.00;19.50;100188.00;;;;4994124;28;20199;-50
2022/04/25 08:55:00;;;;;;;11.20;2.50;;;18.60;49.90;19.50;100194.00;;;;5007695;28;20205;-50
2022/04/25 08:57:28;;;;;;;5.43;2.30;;;18.50;50.00;19.50;100194.00;;;;5006879;28;20186;-50
2022/04/25 08:59:55;;;;;;;5.73;2.43;;;18.50;50.00;19.50;100195.00;;;;5008423;28;20263;-50
2022/04/25 09:02:22;;;;;;;4.10;2.40;;;18.40;49.90;19.40;100194.00;;;;5008124;28;20250;-50
2022/04/25 09:04:49;;;;;;;4.97;2.40;;;18.50;50.00;19.40;100207.00;;;;4941520;28;20182;-51
2022/04/25 09:07:18;;;;;;;4.57;2.20;;;18.50;50.00;19.40;100202.00;;;;5028196;28;20170;-49
2022/04/25 09:09:44;;;;;;;4.37;2.40;;;18.50;49.90;19.40;100215.00;;;;5028046;28;20655;-50
2022/04/25 09:12:12;;;;;;;4.47;2.30;;;18.50;50.00;19.50;100203.00;;;;5026933;28;20194;-50
2022/04/25 09:14:39;;;;;;;4.23;2.40;;;18.50;49.90;19.50;100224.00;;;;5026660;28;20273;-50
2022/04/25 09:17:05;;;;;;;4.57;2.37;;;18.40;49.80;19.40;100209.00;;;;5027310;28;20186;-49
2022/04/25 09:19:36;;;;;;;3.90;2.20;;;18.40;49.80;19.50;100211.00;;;;5027893;28;20187;-49
2022/04/25 09:22:01;;;;;;;4.73;2.37;;;18.50;49.90;19.40;100217.00;;;;5027549;28;20657;-50
2022/04/25 09:24:48;;;;;;;2.93;2.40;;;18.50;50.00;19.40;100214.00;;;;5027355;28;20207;-50
2022/04/25 09:27:18;;;;;;;3.60;2.20;;;18.50;50.00;19.50;100219.00;;;;5027520;28;20187;-50
2022/04/25 09:29:46;;;;;;;5.57;2.33;;;18.40;49.90;19.40;100227.00;;;;5027614;28;20229;-49
2022/04/25 09:32:13;;;;;;;2.20;2.00;;;18.50;50.00;19.40;100207.00;;;;5029515;28;20248;-50
2022/04/25 09:38:03;;;;;;;3.40;2.57;;;18.50;49.90;19.50;100224.00;;;;5030580;28;20633;-51
2022/04/25 09:40:32;;;;;;;3.53;2.40;;;18.50;49.90;19.40;100221.00;;;;4988960;28;20263;-51
2022/04/25 09:43:03;;;;;;;2.97;2.17;;;18.50;49.90;19.40;100223.00;;;;4988417;28;20270;-49
2022/04/25 09:45:29;;;;;;;2.30;2.10;;;18.50;49.90;19.40;100219.00;;;;5011665;28;20189;-49
2022/04/25 09:47:55;;;;;;;4.43;2.40;;;18.40;49.80;19.40;100223.00;;;;5030589;28;20198;-49
2022/04/25 09:50:21;;;;;;;2.70;2.20;;;18.40;49.80;19.40;100220.00;;;;5031029;28;20665;-50
2022/04/25 09:53:02;;;;;;;3.00;2.30;;;18.40;49.80;19.40;100218.00;;;;5030315;28;20227;-50
2022/04/25 09:55:29;;;;;;;3.33;2.20;;;18.50;49.90;19.40;100220.00;;;;5030733;28;20209;-50
2022/04/25 09:57:55;;;;;;;2.43;2.23;;;18.40;49.80;19.40;100227.00;;;;5021477;28;20230;-51
2022/04/25 10:00:36;;;;;;;3.37;2.60;;;18.50;49.90;19.40;100223.00;;;;5009513;28;20181;-50
2022/04/25 10:03:06;;;;;;;2.43;2.20;;;18.50;49.90;19.50;100221.00;;;;5010321;28;20551;-49
2022/04/25 10:05:45;;;;;;;3.80;2.37;;;18.40;49.80;19.50;100239.00;;;;4839427;28;20225;-49
2022/04/25 10:08:13;;;;;;;2.53;2.20;;;18.50;49.90;19.50;100227.00;;;;5030935;28;20209;-50
2022/04/25 10:10:46;;;;;;;3.20;2.23;;;18.40;49.80;19.50;100232.00;;;;5030203;28;20271;-51
2022/04/25 10:13:12;;;;;;;2.40;2.20;;;18.50;49.80;19.50;100231.00;;;;5029965;28;20195;-50
2022/04/25 10:15:39;;;;;;;2.50;2.30;;;18.40;49.70;19.50;100238.00;;;;5030185;28;20229;-50
2022/04/25 10:18:06;;;;;;;2.77;2.30;;;18.50;49.70;19.50;100229.00;;;;5030088;28;20554;-51
2022/04/25 10:20:36;;;;;;;3.53;2.40;;;18.40;49.70;19.40;100239.00;;;;5030351;28;20193;-50
2022/04/25 10:23:04;;;;;;;2.90;2.60;;;18.50;49.80;19.50;100227.00;;;;5030163;28;20213;-50
2022/04/25 10:25:30;;;;;;;2.50;2.30;;;18.50;49.80;19.50;100228.00;;;;5030780;28;20241;-50
2022/04/25 10:27:58;;;;;;;2.50;2.30;;;18.50;49.80;19.50;100235.00;;;;5030344;28;20167;-50
2022/04/25 10:30:24;;;;;;;2.50;2.30;;;18.40;49.70;19.50;100236.00;;;;5013059;28;20181;-51
2022/04/25 10:32:50;;;;;;;2.67;2.47;;;18.50;49.90;19.50;100232.00;;;;5012413;28;20201;-49
2022/04/25 10:35:30;;;;;;;2.60;2.40;;;18.50;49.80;19.50;100235.00;;;;5012172;28;20174;-49
2022/04/25 10:37:56;;;;;;;2.77;2.27;;;18.50;49.90;19.50;100235.00;;;;5029570;28;20182;-51
2022/04/25 10:44:10;;;;;;;3.10;2.47;;;18.50;49.80;19.50;100237.00;;;;5028550;28;20171;-51
2022/04/25 10:45:59;;;;;;;2.50;2.30;;;18.50;49.80;19.50;100244.00;;;;5030728;28;20189;-51
2022/04/25 10:48:28;;;;;;;3.13;2.47;;;18.50;49.80;19.50;100249.00;;;;5036956;28;20182;-51
2022/04/25 10:51:13;;;;;;;2.50;2.30;;;18.50;49.80;19.50;100241.00;;;;5025650;28;20180;-51
2022/04/25 10:54:00;;;;;;;2.60;2.40;;;18.50;49.80;19.50;100242.00;;;;5015432;28;20200;-51
2022/04/25 10:56:31;;;;;;;2.27;2.17;;;18.50;49.90;19.50;100240.00;;;;5009955;28;20183;-51
2022/04/25 10:59:25;;;;;;;2.33;2.13;;;18.50;49.90;19.60;100246.00;;;;5009636;28;20652;-51
2022/04/25 11:01:52;;;;;;;2.67;2.47;;;18.50;49.80;19.50;100247.00;;;;5009086;28;20245;-51
2022/04/25 11:04:19;;;;;;;2.90;2.60;;;18.50;49.80;19.60;100236.00;;;;4946400;28;20204;-50
2022/04/25 11:06:46;;;;;;;4.70;2.60;;;18.50;49.90;19.60;100249.00;;;;5018717;28;20179;-51
2022/04/25 11:09:41;;;;;;;3.97;2.60;;;18.50;50.10;19.50;100246.00;;;;5010693;28;20186;-50
2022/04/25 11:12:07;;;;;;;3.33;2.57;;;18.50;50.20;19.50;100247.00;;;;5008181;28;20739;-51
2022/04/25 11:14:33;;;;;;;3.87;2.60;;;18.60;50.30;19.50;100246.00;;;;5008188;28;20182;-49
2022/04/25 11:17:13;;;;;;;2.87;2.57;;;18.60;50.30;19.60;100256.00;;;;4992243;28;20783;-50
2022/04/25 11:19:51;;;;;;;3.13;2.43;;;18.60;50.20;19.60;100259.00;;;;5009826;28;20655;-50